createdAt,value
2022-10-11T00:00:44.310Z,73.78
2022-10-11T00:03:14.405Z,73.82
2022-10-11T00:05:43.697Z,73.89
2022-10-11T00:08:12.939Z,73.92
2022-10-11T00:10:41.246Z,73.91
2022-10-11T00:13:09.133Z,73.90
2022-10-11T00:15:39.194Z,73.91
2022-10-11T00:18:07.090Z,73.86
2022-10-11T00:20:34.536Z,73.86
2022-10-11T00:23:03.836Z,73.90
2022-10-11T00:25:31.429Z,73.90
2022-10-11T00:27:58.874Z,74.04
2022-10-11T00:30:26.537Z,74.00
2022-10-11T00:32:54.416Z,73.97
2022-10-11T00:35:21.919Z,73.93
2022-10-11T00:37:49.614Z,73.90
2022-10-11T00:40:20.187Z,73.86
2022-10-11T00:42:48.277Z,73.92
2022-10-11T00:45:33.534Z,73.87
2022-10-11T00:48:06.478Z,73.91
2022-10-11T00:50:35.550Z,73.86
2022-10-11T00:53:07.913Z,73.75
2022-10-11T00:55:40.391Z,73.68
2022-10-11T00:58:10.036Z,73.65
2022-10-11T01:00:37.810Z,73.62
2022-10-11T01:03:06.072Z,73.60
2022-10-11T01:05:37.882Z,73.55
2022-10-11T01:08:07.351Z,73.66
2022-10-11T01:10:35.504Z,73.63
2022-10-11T01:13:28.182Z,73.64
2022-10-11T01:16:15.698Z,73.74
2022-10-11T01:19:12.946Z,73.81
2022-10-11T01:21:55.148Z,73.83
2022-10-11T01:25:01.557Z,73.80
2022-10-11T01:27:35.550Z,73.81
2022-10-11T01:30:27.170Z,73.92
2022-10-11T01:33:12.309Z,73.88
2022-10-11T01:35:51.406Z,73.77
2022-10-11T01:38:35.978Z,73.79
2022-10-11T01:41:20.860Z,73.79
2022-10-11T01:43:53.123Z,73.81
2022-10-11T01:46:21.592Z,73.83
2022-10-11T01:48:53.925Z,73.89
2022-10-11T01:51:26.856Z,73.85
2022-10-11T01:54:09.364Z,73.92
2022-10-11T01:57:16.173Z,73.91
2022-10-11T01:59:59.147Z,73.95
2022-10-11T02:03:03.066Z,74.00
2022-10-11T02:05:53.458Z,74.05
2022-10-11T02:08:48.009Z,73.96
2022-10-11T02:11:26.443Z,74.11
2022-10-11T02:14:17.943Z,73.96
2022-10-11T02:17:01.688Z,74.34
2022-10-11T02:19:34.827Z,74.45
2022-10-11T02:22:07.832Z,74.35
2022-10-11T02:24:41.670Z,74.38
2022-10-11T02:27:11.464Z,74.41
2022-10-11T02:29:42.731Z,74.45
2022-10-11T02:32:11.568Z,74.49
2022-10-11T02:34:55.751Z,74.51
2022-10-11T02:37:49.883Z,74.48
2022-10-11T02:40:26.023Z,74.63
2022-10-11T02:43:04.961Z,74.68
2022-10-11T02:45:59.054Z,74.71
2022-10-11T02:48:29.015Z,74.87
2022-10-11T02:50:58.008Z,74.90
2022-10-11T02:53:26.925Z,75.17
2022-10-11T02:55:55.818Z,75.08
2022-10-11T02:58:24.824Z,75.29
2022-10-11T03:00:52.459Z,75.48
2022-10-11T03:03:20.214Z,75.40
2022-10-11T03:05:48.003Z,75.46
2022-10-11T03:08:17.394Z,75.64
2022-10-11T03:10:45.188Z,75.53
2022-10-11T03:13:17.295Z,75.62
2022-10-11T03:15:42.411Z,75.60
2022-10-11T03:18:10.158Z,75.81
2022-10-11T03:20:38.050Z,75.77
2022-10-11T03:23:05.918Z,75.82
2022-10-11T03:25:33.907Z,75.81
2022-10-11T03:28:02.301Z,75.89
2022-10-11T03:30:30.209Z,75.89
2022-10-11T03:33:00.044Z,75.92
2022-10-11T03:35:28.816Z,76.02
2022-10-11T03:37:56.611Z,76.03
2022-10-11T03:40:24.730Z,75.95
2022-10-11T03:42:54.221Z,75.97
2022-10-11T03:45:22.047Z,76.00
2022-10-11T03:47:49.832Z,76.09
2022-10-11T03:50:18.075Z,76.03
2022-10-11T03:52:45.927Z,76.05
2022-10-11T03:55:14.389Z,76.07
2022-10-11T03:57:42.586Z,76.17
2022-10-11T04:00:10.870Z,76.16
2022-10-11T04:02:39.411Z,76.14
2022-10-11T04:05:08.014Z,76.28
2022-10-11T04:07:35.880Z,76.21
2022-10-11T04:10:04.097Z,76.22
2022-10-11T04:12:31.449Z,76.25
2022-10-11T04:14:58.980Z,76.23
2022-10-11T04:17:26.396Z,76.21
2022-10-11T04:19:53.997Z,76.19
2022-10-11T04:22:21.689Z,76.16
2022-10-11T04:24:49.223Z,76.20
2022-10-11T04:27:17.175Z,76.12
2022-10-11T04:29:45.159Z,76.22
2022-10-11T04:32:12.923Z,76.37
2022-10-11T04:34:40.732Z,76.30
2022-10-11T04:37:08.387Z,76.44
2022-10-11T04:39:38.378Z,76.34
2022-10-11T04:42:06.049Z,76.28
2022-10-11T04:44:33.869Z,76.20
2022-10-11T04:47:01.407Z,76.20
2022-10-11T04:49:29.169Z,76.21
2022-10-11T04:51:57.069Z,76.28
2022-10-11T04:54:25.128Z,76.27
2022-10-11T04:56:52.738Z,76.04
2022-10-11T04:59:20.685Z,76.12
2022-10-11T05:01:49.724Z,76.23
2022-10-11T05:04:17.568Z,75.90
2022-10-11T05:06:46.031Z,76.12
2022-10-11T05:09:13.635Z,75.53
2022-10-11T05:11:41.281Z,74.93
2022-10-11T05:14:08.937Z,74.83
2022-10-11T05:16:36.650Z,73.52
2022-10-11T05:19:04.173Z,73.08
2022-10-11T05:21:31.939Z,72.67
2022-10-11T05:23:59.717Z,72.78
2022-10-11T05:26:27.972Z,73.11
2022-10-11T05:28:55.976Z,72.26
2022-10-11T05:31:23.719Z,71.40
2022-10-11T05:33:52.392Z,69.89
2022-10-11T05:36:20.320Z,67.08
2022-10-11T05:38:47.809Z,67.01
2022-10-11T05:41:17.243Z,65.27
2022-10-11T05:43:45.392Z,64.27
2022-10-11T05:46:13.243Z,63.13
2022-10-11T05:48:41.397Z,60.98
2022-10-11T05:51:10.051Z,60.72
2022-10-11T05:53:38.862Z,60.70
2022-10-11T05:56:22.738Z,60.83
2022-10-11T05:58:50.738Z,61.51
2022-10-11T06:01:23.121Z,61.89
2022-10-11T06:03:51.249Z,62.45
2022-10-11T06:06:19.995Z,62.78
2022-10-11T06:08:48.704Z,63.29
2022-10-11T06:11:24.728Z,63.86
2022-10-11T06:13:58.365Z,64.94
2022-10-11T06:16:26.972Z,65.71
2022-10-11T06:18:57.671Z,66.11
2022-10-11T06:21:26.236Z,65.89
2022-10-11T06:23:59.876Z,65.10
2022-10-11T06:26:24.293Z,64.69
2022-10-11T06:28:52.992Z,63.99
2022-10-11T06:31:20.640Z,63.74
2022-10-11T06:33:48.397Z,63.42
2022-10-11T06:36:17.807Z,63.24
2022-10-11T06:38:45.650Z,62.01
2022-10-11T06:41:23.683Z,61.08
2022-10-11T06:43:52.167Z,61.18
2022-10-11T06:46:24.437Z,60.75
2022-10-11T06:48:52.397Z,59.62
2022-10-11T06:51:22.601Z,59.09
2022-10-11T06:53:53.015Z,58.29
2022-10-11T06:56:21.183Z,57.83
2022-10-11T06:58:50.552Z,57.84
2022-10-11T07:01:19.995Z,56.71
2022-10-11T07:03:48.368Z,57.13
2022-10-11T07:06:19.476Z,56.40
2022-10-11T07:08:48.336Z,56.93
2022-10-11T07:11:21.445Z,56.24
2022-10-11T07:13:54.417Z,56.45
2022-10-11T07:16:24.170Z,56.28
2022-10-11T07:19:00.221Z,55.17
2022-10-11T07:21:27.247Z,54.95
2022-10-11T07:23:54.672Z,55.01
2022-10-11T07:26:22.376Z,54.61
2022-10-11T07:28:50.428Z,54.91
2022-10-11T07:31:22.284Z,55.62
2022-10-11T07:33:50.240Z,55.15
2022-10-11T07:36:18.212Z,55.46
2022-10-11T07:38:47.011Z,55.69
2022-10-11T07:41:14.937Z,56.17
2022-10-11T07:43:43.699Z,56.32
2022-10-11T07:46:11.759Z,56.82
2022-10-11T07:48:39.887Z,56.99
2022-10-11T07:51:15.556Z,57.23
2022-10-11T07:53:46.255Z,57.26
2022-10-11T07:56:17.981Z,56.88
2022-10-11T07:58:51.863Z,57.09
2022-10-11T08:01:20.290Z,57.27
2022-10-11T08:03:48.905Z,57.02
2022-10-11T08:06:21.188Z,57.36
2022-10-11T08:08:49.467Z,57.57
2022-10-11T08:11:31.484Z,57.60
2022-10-11T08:14:00.167Z,57.58
2022-10-11T08:16:28.150Z,57.76
2022-10-11T08:18:56.492Z,57.63
2022-10-11T08:21:26.215Z,57.30
2022-10-11T08:23:53.953Z,57.42
2022-10-11T08:26:21.635Z,57.43
2022-10-11T08:28:50.427Z,56.89
2022-10-11T08:31:18.315Z,56.71
2022-10-11T08:33:45.938Z,56.57
2022-10-11T08:36:13.538Z,56.43
2022-10-11T08:38:41.805Z,56.36
2022-10-11T08:41:48.854Z,56.49
2022-10-11T08:44:58.737Z,55.95
2022-10-11T08:47:17.630Z,53.75
2022-10-11T08:49:45.962Z,53.75
2022-10-11T08:52:25.136Z,53.37
2022-10-11T08:55:29.017Z,52.29
2022-10-11T08:57:57.643Z,52.06
2022-10-11T09:00:29.952Z,51.97
2022-10-11T09:03:38.068Z,52.43
2022-10-11T09:06:22.860Z,51.95
2022-10-11T09:09:12.611Z,51.81
2022-10-11T09:12:10.566Z,51.64
2022-10-11T09:15:01.793Z,51.31
2022-10-11T09:18:10.421Z,50.89
2022-10-11T09:21:07.874Z,50.83
2022-10-11T09:24:01.452Z,50.74
2022-10-11T09:26:56.235Z,50.69
2022-10-11T09:29:48.763Z,50.08
2022-10-11T09:32:22.855Z,49.63
2022-10-11T09:35:01.535Z,48.87
2022-10-11T09:37:37.586Z,48.71
2022-10-11T09:40:31.018Z,47.87
2022-10-11T09:42:59.061Z,47.42
2022-10-11T09:45:26.697Z,46.88
2022-10-11T09:47:56.928Z,46.56
2022-10-11T09:50:29.035Z,47.06
2022-10-11T09:53:01.794Z,46.32
2022-10-11T09:55:50.225Z,46.60
2022-10-11T09:58:31.608Z,46.82
2022-10-11T10:01:08.439Z,46.79
2022-10-11T10:03:42.110Z,47.21
2022-10-11T10:06:23.220Z,47.42
2022-10-11T10:08:51.169Z,47.33
2022-10-11T10:11:19.932Z,46.96
2022-10-11T10:13:51.640Z,46.85
2022-10-11T10:16:33.716Z,46.83
2022-10-11T10:19:05.970Z,46.91
2022-10-11T10:21:48.125Z,47.47
2022-10-11T10:24:38.654Z,47.74
2022-10-11T10:27:26.109Z,48.13
2022-10-11T10:30:12.778Z,48.46
2022-10-11T10:33:06.777Z,48.52
2022-10-11T10:35:41.607Z,48.68
2022-10-11T10:38:36.017Z,49.03
2022-10-11T10:41:13.294Z,49.37
2022-10-11T10:43:43.316Z,49.43
2022-10-11T10:46:46.632Z,49.48
2022-10-11T10:49:52.993Z,49.43
2022-10-11T10:52:32.767Z,49.07
2022-10-11T10:55:15.302Z,49.07
2022-10-11T10:58:29.718Z,48.82
2022-10-11T11:01:15.105Z,48.99
2022-10-11T11:03:53.449Z,49.16
2022-10-11T11:06:41.351Z,48.78
2022-10-11T11:09:25.632Z,48.42
2022-10-11T11:12:04.758Z,48.80
2022-10-11T11:14:57.327Z,49.35
2022-10-11T11:17:45.247Z,49.42
2022-10-11T11:20:53.637Z,49.31
2022-10-11T11:23:40.831Z,49.62
2022-10-11T11:26:40.822Z,49.65
2022-10-11T11:29:25.686Z,49.61
2022-10-11T11:32:30.875Z,49.99
2022-10-11T11:35:17.324Z,50.00
2022-10-11T11:37:47.807Z,49.89
2022-10-11T11:40:34.439Z,49.69
2022-10-11T11:43:16.228Z,49.90
2022-10-11T11:45:57.820Z,50.11
2022-10-11T11:48:26.900Z,50.63
2022-10-11T11:51:06.288Z,50.49
2022-10-11T11:54:17.659Z,50.89
2022-10-11T11:56:56.541Z,50.94
2022-10-11T11:59:38.822Z,50.95
2022-10-11T12:02:54.548Z,50.97
2022-10-11T12:05:30.191Z,51.09
2022-10-11T12:08:06.355Z,51.13
2022-10-11T12:10:55.640Z,50.93
2022-10-11T12:13:40.915Z,50.42
2022-10-11T12:16:17.407Z,50.40
2022-10-11T12:19:01.932Z,50.50
2022-10-11T12:21:38.833Z,50.36
2022-10-11T12:24:16.784Z,50.16
2022-10-11T12:26:47.663Z,50.55
2022-10-11T12:29:29.010Z,50.82
2022-10-11T12:32:04.720Z,50.95
2022-10-11T12:34:37.854Z,51.13
2022-10-11T12:37:23.102Z,51.05
2022-10-11T12:39:54.674Z,51.07
2022-10-11T12:42:27.682Z,51.27
2022-10-11T12:45:22.418Z,51.22
2022-10-11T12:48:19.153Z,51.25
2022-10-11T12:50:55.592Z,51.08
2022-10-11T12:54:25.025Z,51.18
2022-10-11T12:56:56.818Z,51.26
2022-10-11T12:59:25.883Z,50.78
2022-10-11T13:01:58.815Z,51.03
2022-10-11T13:04:31.291Z,50.65
2022-10-11T13:07:07.079Z,50.41
2022-10-11T13:09:45.266Z,50.48
2022-10-11T13:12:20.238Z,50.36
2022-10-11T13:15:06.009Z,50.34
2022-10-11T13:17:38.871Z,50.22
2022-10-11T13:20:28.082Z,50.05
2022-10-11T13:22:57.973Z,50.20
2022-10-11T13:25:34.680Z,50.57
2022-10-11T13:28:02.584Z,50.12
2022-10-11T13:30:34.026Z,50.00
2022-10-11T13:33:09.981Z,50.25
2022-10-11T13:35:38.886Z,50.51
2022-10-11T13:38:26.511Z,50.34
2022-10-11T13:40:57.347Z,50.31
2022-10-11T13:43:28.603Z,50.34
2022-10-11T13:46:00.064Z,50.38
2022-10-11T13:48:31.900Z,50.49
2022-10-11T13:51:12.715Z,50.29
2022-10-11T13:54:00.749Z,50.83
2022-10-11T13:56:33.398Z,51.06
2022-10-11T13:59:01.596Z,51.27
2022-10-11T14:01:43.972Z,51.45
2022-10-11T14:04:16.931Z,51.47
2022-10-11T14:06:52.393Z,51.50
2022-10-11T14:09:25.922Z,51.58
2022-10-11T14:11:54.824Z,51.69
2022-10-11T14:14:41.101Z,51.90
2022-10-11T14:17:19.375Z,52.04
2022-10-11T14:20:10.158Z,52.04
2022-10-11T14:22:33.676Z,51.95
2022-10-11T14:25:01.228Z,52.04
2022-10-11T14:27:29.030Z,52.25
2022-10-11T14:30:20.250Z,52.42
2022-10-11T14:32:33.464Z,52.30
2022-10-11T14:35:01.361Z,52.34
2022-10-11T14:37:29.215Z,52.57
2022-10-11T14:39:56.993Z,52.84
2022-10-11T14:42:24.699Z,53.01
2022-10-11T14:44:52.411Z,53.14
2022-10-11T14:47:20.150Z,53.48
2022-10-11T14:49:47.942Z,53.75
2022-10-11T14:52:15.788Z,53.96
2022-10-11T14:54:44.097Z,54.15
2022-10-11T14:57:13.192Z,54.40
2022-10-11T14:59:40.936Z,54.55
2022-10-11T15:02:10.954Z,54.66
2022-10-11T15:04:38.872Z,54.75
2022-10-11T15:07:06.528Z,54.82
2022-10-11T15:09:33.982Z,55.08
2022-10-11T15:12:01.985Z,55.27
2022-10-11T15:14:29.673Z,55.44
2022-10-11T15:16:57.255Z,55.73
2022-10-11T15:19:25.290Z,56.04
2022-10-11T15:21:53.266Z,56.15
2022-10-11T15:24:21.429Z,56.33
2022-10-11T15:26:50.371Z,56.50
2022-10-11T15:29:19.888Z,56.69
2022-10-11T15:31:48.861Z,57.04
2022-10-11T15:34:17.069Z,57.28
2022-10-11T15:36:45.014Z,57.56
2022-10-11T15:39:33.376Z,57.86
2022-10-11T15:42:01.503Z,58.11
2022-10-11T15:44:29.221Z,58.57
2022-10-11T15:46:59.833Z,58.81
2022-10-11T15:49:33.433Z,59.05
2022-10-11T15:52:02.500Z,59.44
2022-10-11T15:54:30.113Z,59.83
2022-10-11T15:56:58.212Z,60.19
2022-10-11T15:59:28.395Z,60.58
2022-10-11T16:02:00.815Z,61.00
2022-10-11T16:04:31.695Z,61.97
2022-10-11T16:07:02.461Z,61.95
2022-10-11T16:09:40.691Z,62.28
2022-10-11T16:12:10.191Z,62.72
2022-10-11T16:14:38.195Z,63.15
2022-10-11T16:17:07.709Z,63.51
2022-10-11T16:19:37.648Z,63.95
2022-10-11T16:22:07.475Z,64.28
2022-10-11T16:24:35.506Z,64.56
2022-10-11T16:27:05.361Z,65.18
2022-10-11T16:29:32.815Z,65.64
2022-10-11T16:32:00.623Z,65.67
2022-10-11T16:34:30.046Z,65.77
2022-10-11T16:36:57.619Z,65.93
2022-10-11T16:39:25.267Z,66.07
2022-10-11T16:41:52.994Z,66.23
2022-10-11T16:44:27.334Z,66.60
2022-10-11T16:46:56.111Z,66.93
2022-10-11T16:49:27.713Z,67.17
2022-10-11T16:52:03.150Z,67.39
2022-10-11T16:54:31.246Z,67.62
2022-10-11T16:57:01.489Z,68.10
2022-10-11T16:59:29.821Z,68.10
2022-10-11T17:01:57.886Z,68.37
2022-10-11T17:04:25.858Z,68.71
2022-10-11T17:06:54.710Z,68.99
2022-10-11T17:09:22.489Z,69.39
2022-10-11T17:11:50.822Z,69.51
2022-10-11T17:14:20.993Z,69.85
2022-10-11T17:16:48.892Z,70.00
2022-10-11T17:19:16.631Z,70.10
2022-10-11T17:21:46.079Z,70.45
2022-10-11T17:24:15.478Z,70.51
2022-10-11T17:26:43.179Z,70.71
2022-10-11T17:29:16.313Z,71.00
2022-10-11T17:31:49.027Z,71.08
2022-10-11T17:34:17.007Z,71.16
2022-10-11T17:36:47.491Z,71.26
2022-10-11T17:39:23.698Z,71.36
2022-10-11T17:41:52.249Z,71.74
2022-10-11T17:44:21.192Z,71.97
2022-10-11T17:46:49.953Z,72.21
2022-10-11T17:49:18.187Z,72.53
2022-10-11T17:51:46.320Z,72.70
2022-10-11T17:54:14.327Z,72.90
2022-10-11T17:56:42.487Z,72.94
2022-10-11T17:59:17.483Z,73.07
2022-10-11T18:01:45.967Z,73.21
2022-10-11T18:04:19.069Z,73.18
2022-10-11T18:06:48.406Z,73.31
2022-10-11T18:09:20.652Z,73.44
2022-10-11T18:11:48.742Z,73.41
2022-10-11T18:14:16.835Z,73.66
2022-10-11T18:16:44.823Z,73.59
2022-10-11T18:19:15.001Z,73.61
2022-10-11T18:21:44.444Z,73.70
2022-10-11T18:24:15.249Z,73.89
2022-10-11T18:26:45.874Z,73.93
2022-10-11T18:29:15.945Z,74.08
2022-10-11T18:31:48.690Z,74.30
2022-10-11T18:34:16.325Z,74.45
2022-10-11T18:36:47.940Z,74.62
2022-10-11T18:39:15.855Z,74.73
2022-10-11T18:41:45.867Z,74.87
2022-10-11T18:44:15.197Z,74.96
2022-10-11T18:46:43.707Z,75.01
2022-10-11T18:49:11.865Z,75.14
2022-10-11T18:51:41.833Z,75.32
2022-10-11T18:54:14.092Z,75.45
2022-10-11T18:56:42.186Z,75.54
2022-10-11T18:59:10.438Z,75.69
2022-10-11T19:01:41.584Z,75.79
2022-10-11T19:04:13.000Z,75.93
2022-10-11T19:06:46.805Z,76.07
2022-10-11T19:09:22.007Z,76.18
2022-10-11T19:11:53.356Z,76.27
2022-10-11T19:14:25.760Z,76.41
2022-10-11T19:16:55.673Z,76.47
2022-10-11T19:19:27.197Z,76.55
2022-10-11T19:21:55.802Z,76.69
2022-10-11T19:24:26.448Z,76.76
2022-10-11T19:26:57.363Z,76.89
2022-10-11T19:29:28.268Z,76.87
2022-10-11T19:31:59.448Z,76.93
2022-10-11T19:34:29.459Z,77.02
2022-10-11T19:36:59.757Z,77.09
2022-10-11T19:39:28.998Z,77.15
2022-10-11T19:41:57.016Z,77.17
2022-10-11T19:44:24.834Z,77.19
2022-10-11T19:46:53.113Z,77.24
2022-10-11T19:49:24.375Z,77.29
2022-10-11T19:51:54.782Z,77.35
2022-10-11T19:54:23.005Z,77.41
2022-10-11T19:56:50.632Z,77.44
2022-10-11T19:59:21.552Z,77.50
2022-10-11T20:01:52.758Z,77.60
2022-10-11T20:04:46.958Z,77.64
2022-10-11T20:06:48.441Z,77.72
2022-10-11T20:09:28.969Z,77.70
2022-10-11T20:11:45.477Z,77.72
2022-10-11T20:14:13.081Z,77.81
2022-10-11T20:16:41.923Z,77.87
2022-10-11T20:19:09.656Z,77.90
2022-10-11T20:21:37.474Z,77.97
2022-10-11T20:24:07.160Z,78.02
2022-10-11T20:26:34.973Z,78.02
2022-10-11T20:29:02.855Z,78.08
2022-10-11T20:31:34.331Z,78.10
2022-10-11T20:34:04.570Z,78.13
2022-10-11T20:36:35.387Z,78.18
2022-10-11T20:39:04.919Z,78.29
2022-10-11T20:41:46.046Z,78.28
2022-10-11T20:44:15.484Z,78.35
2022-10-11T20:46:43.608Z,78.41
2022-10-11T20:49:13.135Z,78.45
2022-10-11T20:51:42.166Z,78.57
2022-10-11T20:54:10.443Z,78.75
2022-10-11T20:56:39.195Z,78.76
2022-10-11T20:59:07.511Z,79.02
2022-10-11T21:01:39.826Z,78.88
2022-10-11T21:04:12.012Z,78.86
2022-10-11T21:06:39.827Z,78.97
2022-10-11T21:09:09.370Z,78.99
2022-10-11T21:11:37.140Z,79.14
2022-10-11T21:14:06.269Z,79.21
2022-10-11T21:16:34.526Z,79.48
2022-10-11T21:19:03.560Z,79.52
2022-10-11T21:21:31.474Z,79.56
2022-10-11T21:24:01.977Z,79.63
2022-10-11T21:26:30.905Z,79.71
2022-10-11T21:28:59.051Z,79.90
2022-10-11T21:31:31.294Z,79.77
2022-10-11T21:33:58.569Z,79.79
2022-10-11T21:36:26.386Z,79.80
2022-10-11T21:38:54.296Z,79.87
2022-10-11T21:41:25.380Z,79.89
2022-10-11T21:43:53.302Z,79.95
2022-10-11T21:46:47.551Z,79.94
2022-10-11T21:48:57.981Z,79.94
2022-10-11T21:51:30.388Z,79.92
2022-10-11T21:54:00.597Z,79.93
2022-10-11T21:56:28.940Z,79.97
2022-10-11T21:58:56.582Z,80.06
2022-10-11T22:01:24.633Z,80.00
2022-10-11T22:03:54.179Z,79.94
2022-10-11T22:06:22.962Z,79.96
2022-10-11T22:08:52.249Z,79.97
2022-10-11T22:11:20.055Z,80.01
2022-10-11T22:13:48.969Z,80.20
2022-10-11T22:16:16.816Z,80.34
2022-10-11T22:18:44.246Z,80.43
2022-10-11T22:21:21.093Z,80.57
2022-10-11T22:23:51.087Z,80.76
2022-10-11T22:26:23.504Z,80.86
2022-10-11T22:28:52.892Z,80.96
2022-10-11T22:31:21.760Z,81.04
2022-10-11T22:33:54.453Z,81.10
2022-10-11T22:36:23.725Z,81.18
2022-10-11T22:38:52.102Z,81.27
2022-10-11T22:41:20.030Z,81.31
2022-10-11T22:43:47.709Z,81.41
2022-10-11T22:46:15.615Z,81.44
2022-10-11T22:48:43.398Z,81.52
2022-10-11T22:51:11.104Z,81.54
2022-10-11T22:53:39.336Z,81.54
2022-10-11T22:56:08.435Z,81.58
2022-10-11T22:58:36.479Z,81.65
2022-10-11T23:01:13.382Z,81.65
2022-10-11T23:03:41.438Z,81.71
2022-10-11T23:06:11.190Z,81.67
2022-10-11T23:08:38.937Z,81.71
2022-10-11T23:11:07.661Z,81.67
2022-10-11T23:13:35.499Z,81.68
2022-10-11T23:16:12.076Z,81.64
2022-10-11T23:18:39.952Z,81.68
2022-10-11T23:21:08.476Z,81.71
2022-10-11T23:23:36.170Z,81.63
2022-10-11T23:26:08.401Z,81.62
2022-10-11T23:28:36.571Z,81.68
2022-10-11T23:31:14.808Z,81.72
2022-10-11T23:33:44.195Z,81.76
2022-10-11T23:36:19.270Z,81.80
2022-10-11T23:38:56.644Z,81.80
2022-10-11T23:41:27.487Z,81.82
2022-10-11T23:43:55.743Z,81.81
2022-10-11T23:46:23.677Z,81.85
2022-10-11T23:48:51.275Z,81.87
2022-10-11T23:51:19.017Z,81.94
2022-10-11T23:53:46.652Z,81.96
2022-10-11T23:56:14.232Z,81.99
2022-10-11T23:58:42.250Z,81.99
